East Pitcairn, New York
Current Conditions -  °F | °C
As of 8:12 PM on Monday 20 Oct 2014 (Local Time) from KGTB Reporting Station
Drizzle Drizzle  
Wind Chill:   Ceiling: 4400
Heat Index:   Visibility: 10mi
Dew Point:   Wind: 7mph
Humidity: 71%   Direction: 170°S
Pressure: 29.87"   Gusts: NA
Location:  44.1447°N, 75.2952°W
Report Text: KGTB 210012Z AUTO 17006KT 10SM -DZ OVC044 09/04 A2987 RMK AO2 DZB0012
Loading
Personal Weather Stations






























Interactive Weather Map
Tropical Storm Tracking
New forecast layout! Learn more

10-Day Weather Forecast

Advertisements
Track Severe Weather on mobile